createdAt,value
2018-04-13T00:02:23.997Z,99.40
2018-04-13T00:04:53.076Z,99.50
2018-04-13T00:07:21.290Z,99.50
2018-04-13T00:09:49.555Z,99.60
2018-04-13T00:12:17.807Z,99.70
2018-04-13T00:14:46.082Z,99.60
2018-04-13T00:17:14.291Z,99.70
2018-04-13T00:19:42.563Z,99.80
2018-04-13T00:22:10.763Z,99.90
2018-04-13T00:24:39.015Z,99.90
2018-04-13T00:27:07.271Z,99.90
2018-04-13T00:29:36.288Z,99.90
2018-04-13T00:32:04.762Z,99.90
2018-04-13T00:34:33.094Z,99.90
2018-04-13T00:37:01.284Z,99.90
2018-04-13T00:39:29.490Z,99.90
2018-04-13T00:41:58.471Z,99.90
2018-04-13T00:44:27.456Z,99.90
2018-04-13T00:46:55.635Z,99.90
2018-04-13T00:49:24.647Z,99.90
2018-04-13T00:51:52.834Z,99.90
2018-04-13T00:54:21.055Z,99.90
2018-04-13T00:56:49.287Z,99.90
2018-04-13T00:59:17.495Z,99.90
2018-04-13T01:01:45.687Z,99.90
2018-04-13T01:04:13.963Z,99.90
2018-04-13T01:06:42.719Z,99.90
2018-04-13T01:09:10.931Z,99.90
2018-04-13T01:11:39.155Z,99.90
2018-04-13T01:14:07.348Z,99.90
2018-04-13T01:16:35.583Z,99.90
2018-04-13T01:19:03.931Z,99.90
2018-04-13T01:21:32.131Z,99.90
2018-04-13T01:24:00.520Z,99.90
2018-04-13T01:26:29.329Z,99.90
2018-04-13T01:28:57.586Z,99.90
2018-04-13T01:31:25.776Z,99.90
2018-04-13T01:33:53.995Z,99.90
2018-04-13T01:36:22.219Z,99.90
2018-04-13T01:38:50.407Z,99.90
2018-04-13T01:41:18.627Z,99.90
2018-04-13T01:43:47.664Z,99.90
2018-04-13T01:46:15.842Z,99.90
2018-04-13T01:48:44.168Z,99.90
2018-04-13T01:51:12.447Z,99.90
2018-04-13T01:53:40.642Z,99.90
2018-04-13T01:56:09.005Z,99.90
2018-04-13T01:58:37.966Z,99.90
2018-04-13T02:01:06.168Z,99.90
2018-04-13T02:03:34.471Z,99.90
2018-04-13T02:06:02.679Z,99.90
2018-04-13T02:08:30.974Z,99.90
2018-04-13T02:10:59.255Z,99.90
2018-04-13T02:13:27.446Z,99.90
2018-04-13T02:15:55.718Z,99.90
2018-04-13T02:18:24.123Z,99.90
2018-04-13T02:20:52.327Z,99.90
2018-04-13T02:23:21.284Z,99.90
2018-04-13T02:25:50.264Z,99.90
2018-04-13T02:28:18.459Z,99.90
2018-04-13T02:30:47.517Z,99.90
2018-04-13T02:33:15.893Z,99.90
2018-04-13T02:35:44.098Z,99.90
2018-04-13T02:38:13.073Z,99.90
2018-04-13T02:40:41.275Z,99.90
2018-04-13T02:43:10.239Z,99.90
2018-04-13T02:48:19.185Z,99.90
2018-04-13T02:50:47.371Z,99.90
2018-04-13T02:53:16.361Z,99.90
2018-04-13T02:55:44.729Z,99.90
2018-04-13T02:58:12.924Z,99.90
2018-04-13T03:00:41.876Z,99.90
2018-04-13T03:03:10.139Z,99.90
2018-04-13T03:05:38.455Z,99.90
2018-04-13T03:08:07.423Z,99.90
2018-04-13T03:10:38.551Z,99.90
2018-04-13T03:13:07.539Z,99.90
2018-04-13T03:15:35.756Z,99.90
2018-04-13T03:18:05.291Z,99.90
2018-04-13T03:20:33.687Z,99.90
2018-04-13T03:23:01.898Z,99.90
2018-04-13T03:25:30.108Z,99.90
2018-04-13T03:27:59.063Z,99.90
2018-04-13T03:30:27.291Z,99.90
2018-04-13T03:32:56.815Z,99.90
2018-04-13T03:35:25.003Z,99.90
2018-04-13T03:37:53.186Z,99.90
2018-04-13T03:40:21.397Z,99.90
2018-04-13T03:42:50.355Z,99.90
2018-04-13T03:45:18.549Z,99.90
2018-04-13T03:47:46.780Z,99.90
2018-04-13T03:50:14.958Z,99.90
2018-04-13T03:52:43.915Z,99.90
2018-04-13T03:55:12.166Z,99.90
2018-04-13T03:57:40.355Z,99.90
2018-04-13T04:00:09.314Z,99.90
2018-04-13T04:02:37.522Z,99.90
2018-04-13T04:05:06.516Z,99.90
2018-04-13T04:07:35.499Z,99.90
2018-04-13T04:10:03.715Z,99.90
2018-04-13T04:12:31.895Z,99.90
2018-04-13T04:15:00.123Z,99.90
2018-04-13T04:17:28.785Z,99.90
2018-04-13T04:20:08.928Z,99.90
2018-04-13T04:22:48.955Z,99.90
2018-04-13T04:25:28.904Z,99.90
2018-04-13T04:27:57.106Z,99.90
2018-04-13T04:30:25.383Z,99.90
2018-04-13T04:32:53.628Z,99.90
2018-04-13T04:35:22.167Z,99.90
2018-04-13T04:37:50.527Z,99.90
2018-04-13T04:40:18.787Z,99.90
2018-04-13T04:42:47.003Z,99.90
2018-04-13T04:45:15.272Z,99.90
2018-04-13T04:47:43.452Z,99.90
2018-04-13T04:50:11.751Z,99.90
2018-04-13T04:52:40.767Z,99.90
2018-04-13T04:55:09.079Z,99.90
2018-04-13T04:57:37.295Z,99.90
2018-04-13T05:00:06.291Z,99.90
2018-04-13T05:02:35.258Z,99.90
2018-04-13T05:05:03.546Z,99.90
2018-04-13T05:07:31.775Z,99.90
2018-04-13T05:09:59.983Z,99.90
2018-04-13T05:12:28.307Z,99.90
2018-04-13T05:14:56.561Z,99.90
2018-04-13T05:17:25.514Z,99.90
2018-04-13T05:19:53.755Z,99.90
2018-04-13T05:22:21.991Z,99.90
2018-04-13T05:24:50.319Z,99.90
2018-04-13T05:27:18.552Z,99.90
2018-04-13T05:29:47.534Z,99.90
2018-04-13T05:32:15.845Z,99.90
2018-04-13T05:34:44.822Z,99.90
2018-04-13T05:37:13.789Z,99.90
2018-04-13T05:39:41.981Z,99.90
2018-04-13T05:42:11.083Z,99.90
2018-04-13T05:44:40.087Z,99.90
2018-04-13T05:47:09.045Z,99.90
2018-04-13T05:49:37.251Z,99.90
2018-04-13T05:52:06.241Z,99.90
2018-04-13T05:54:35.205Z,99.90
2018-04-13T05:57:03.420Z,99.90
2018-04-13T05:59:32.392Z,99.90
2018-04-13T06:02:00.599Z,99.90
2018-04-13T06:04:29.660Z,99.40
2018-04-13T06:06:57.919Z,99.40
2018-04-13T06:09:26.139Z,99.00
2018-04-13T06:11:55.222Z,99.20
2018-04-13T06:14:24.331Z,98.70
2018-04-13T06:16:52.520Z,98.70
2018-04-13T06:19:20.758Z,98.60
2018-04-13T06:21:48.955Z,98.60
2018-04-13T06:24:17.954Z,97.80
2018-04-13T06:26:46.147Z,97.80
2018-04-13T06:29:14.336Z,98.10
2018-04-13T06:31:42.539Z,98.20
2018-04-13T06:34:10.875Z,97.60
2018-04-13T06:36:39.077Z,96.70
2018-04-13T06:39:07.263Z,97.20
2018-04-13T06:41:35.527Z,97.80
2018-04-13T06:44:03.720Z,97.70
2018-04-13T06:46:32.067Z,97.40
2018-04-13T06:49:00.356Z,97.20
2018-04-13T06:51:28.548Z,97.10
2018-04-13T06:53:56.750Z,97.50
2018-04-13T06:56:25.905Z,96.40
2018-04-13T06:58:54.184Z,96.40
2018-04-13T07:01:22.403Z,96.50
2018-04-13T07:03:50.650Z,96.50
2018-04-13T07:06:18.843Z,96.40
2018-04-13T07:08:47.822Z,96.80
2018-04-13T07:11:16.099Z,96.80
2018-04-13T07:13:44.320Z,95.60
2018-04-13T07:16:13.323Z,95.00
2018-04-13T07:18:41.583Z,95.00
2018-04-13T07:21:09.799Z,95.20
2018-04-13T07:23:37.991Z,95.80
2018-04-13T07:26:06.203Z,96.20
2018-04-13T07:28:34.417Z,95.30
2018-04-13T07:31:02.603Z,94.60
2018-04-13T07:33:31.771Z,94.90
2018-04-13T07:36:00.024Z,95.10
2018-04-13T07:38:28.295Z,95.20
2018-04-13T07:40:56.515Z,95.50
2018-04-13T07:43:24.789Z,96.20
2018-04-13T07:45:52.966Z,96.30
2018-04-13T07:48:21.270Z,96.00
2018-04-13T07:50:50.138Z,95.60
2018-04-13T07:53:18.336Z,95.60
2018-04-13T07:55:46.581Z,95.90
2018-04-13T07:58:14.771Z,96.10
2018-04-13T08:00:42.988Z,95.40
2018-04-13T08:03:11.239Z,94.80
2018-04-13T08:05:40.203Z,94.60
2018-04-13T08:08:08.392Z,94.60
2018-04-13T08:10:36.603Z,94.50
2018-04-13T08:13:04.803Z,93.70
2018-04-13T08:15:33.027Z,93.40
2018-04-13T08:18:01.414Z,93.40
2018-04-13T08:20:29.575Z,93.10
2018-04-13T08:22:57.803Z,92.80
2018-04-13T08:25:26.771Z,92.80
2018-04-13T08:27:55.815Z,92.80
2018-04-13T08:30:24.092Z,92.80
2018-04-13T08:32:52.387Z,93.00
2018-04-13T08:35:20.630Z,92.90
2018-04-13T08:37:48.841Z,92.90
2018-04-13T08:40:17.139Z,92.40
2018-04-13T08:42:46.128Z,92.40
2018-04-13T08:45:15.139Z,92.30
2018-04-13T08:47:43.371Z,92.30
2018-04-13T08:50:11.551Z,92.80
2018-04-13T08:52:39.739Z,93.20
2018-04-13T08:55:08.723Z,94.90
2018-04-13T08:57:36.943Z,94.90
2018-04-13T09:00:05.127Z,95.30
2018-04-13T09:02:33.480Z,95.40
2018-04-13T09:05:01.681Z,95.90
2018-04-13T09:07:29.996Z,95.40
2018-04-13T09:09:58.283Z,94.90
2018-04-13T09:12:26.488Z,94.60
2018-04-13T09:14:54.690Z,94.90
2018-04-13T09:17:22.963Z,95.10
2018-04-13T09:19:51.263Z,94.70
2018-04-13T09:22:19.457Z,94.70
2018-04-13T09:24:47.723Z,94.50
2018-04-13T09:27:15.916Z,95.10
2018-04-13T09:29:44.875Z,95.00
2018-04-13T09:32:13.142Z,95.00
2018-04-13T09:34:41.407Z,94.60
2018-04-13T09:37:09.628Z,94.90
2018-04-13T09:39:38.094Z,95.00
2018-04-13T09:42:06.283Z,95.50
2018-04-13T09:44:34.470Z,96.00
2018-04-13T09:47:03.487Z,96.50
2018-04-13T09:49:31.696Z,96.50
2018-04-13T09:51:59.887Z,95.60
2018-04-13T09:54:28.260Z,96.40
2018-04-13T09:56:56.571Z,95.70
2018-04-13T09:59:25.575Z,95.80
2018-04-13T10:01:54.571Z,96.20
2018-04-13T10:04:23.605Z,96.60
2018-04-13T10:06:51.848Z,96.60
2018-04-13T10:09:20.879Z,97.60
2018-04-13T10:11:49.067Z,97.60
2018-04-13T10:14:17.259Z,96.60
2018-04-13T10:16:45.523Z,96.30
2018-04-13T10:19:13.710Z,96.90
2018-04-13T10:21:42.020Z,95.50
2018-04-13T10:24:10.248Z,94.30
2018-04-13T10:26:38.491Z,94.30
2018-04-13T10:29:06.783Z,94.40
2018-04-13T10:31:35.123Z,93.70
2018-04-13T10:34:03.315Z,93.10
2018-04-13T10:36:31.583Z,91.90
2018-04-13T10:38:59.894Z,91.00
2018-04-13T10:41:28.191Z,90.20
2018-04-13T10:43:56.395Z,90.60
2018-04-13T10:46:25.467Z,84.90
2018-04-13T10:48:53.662Z,84.90
2018-04-13T10:51:22.619Z,85.60
2018-04-13T10:53:50.921Z,85.60
2018-04-13T10:56:19.154Z,83.30
2018-04-13T10:58:47.352Z,82.00
2018-04-13T11:01:15.688Z,77.90
2018-04-13T11:03:44.031Z,76.80
2018-04-13T11:06:12.216Z,76.80
2018-04-13T11:08:40.454Z,77.30
2018-04-13T11:11:08.671Z,76.10
2018-04-13T11:13:36.864Z,73.30
2018-04-13T11:16:05.111Z,71.70
2018-04-13T11:18:34.094Z,77.40
2018-04-13T11:21:03.072Z,77.90
2018-04-13T11:23:31.295Z,77.80
2018-04-13T11:25:59.497Z,75.40
2018-04-13T11:28:27.700Z,74.60
2018-04-13T11:30:55.915Z,69.20
2018-04-13T11:33:24.139Z,69.40
2018-04-13T11:35:52.459Z,70.30
2018-04-13T11:38:20.731Z,71.70
2018-04-13T11:40:48.991Z,74.80
2018-04-13T11:43:17.980Z,77.40
2018-04-13T11:45:46.195Z,77.40
2018-04-13T11:48:14.403Z,74.40
2018-04-13T11:50:42.845Z,78.60
2018-04-13T11:53:11.099Z,73.30
2018-04-13T11:55:40.846Z,71.20
2018-04-13T11:58:09.178Z,71.10
2018-04-13T12:00:38.234Z,76.20
2018-04-13T12:03:07.686Z,76.20
2018-04-13T12:05:35.859Z,76.60
2018-04-13T12:08:04.861Z,76.60
2018-04-13T12:10:33.818Z,73.20
2018-04-13T12:13:02.179Z,73.20
2018-04-13T12:15:30.377Z,74.50
2018-04-13T12:17:58.563Z,72.70
2018-04-13T12:20:27.519Z,70.00
2018-04-13T12:22:55.903Z,69.90
2018-04-13T12:25:24.091Z,69.10
2018-04-13T12:27:52.634Z,73.30
2018-04-13T12:30:21.251Z,72.60
2018-04-13T12:32:49.492Z,73.30
2018-04-13T12:35:18.787Z,69.20
2018-04-13T12:37:47.013Z,69.20
2018-04-13T12:40:15.199Z,66.00
2018-04-13T12:42:44.155Z,62.80
2018-04-13T12:45:12.664Z,62.70
2018-04-13T12:47:40.919Z,63.20
2018-04-13T12:50:09.302Z,61.80
2018-04-13T12:52:37.666Z,64.30
2018-04-13T12:55:06.834Z,67.10
2018-04-13T12:57:35.606Z,68.40
2018-04-13T13:00:03.807Z,68.20
2018-04-13T13:02:32.006Z,67.90
2018-04-13T13:05:00.355Z,65.30
2018-04-13T13:07:28.631Z,68.30
2018-04-13T13:09:57.175Z,71.80
2018-04-13T13:12:25.501Z,68.90
2018-04-13T13:14:54.158Z,69.50
2018-04-13T13:17:23.109Z,67.60
2018-04-13T13:19:51.294Z,67.50
2018-04-13T13:22:19.541Z,66.60
2018-04-13T13:24:47.731Z,66.00
2018-04-13T13:27:15.915Z,63.60
2018-04-13T13:29:44.476Z,62.40
2018-04-13T13:32:12.672Z,61.40
2018-04-13T13:34:40.826Z,60.90
2018-04-13T13:37:09.103Z,60.40
2018-04-13T13:39:37.395Z,58.80
2018-04-13T13:42:05.595Z,58.20
2018-04-13T13:44:34.598Z,61.20
2018-04-13T13:47:03.547Z,67.30
2018-04-13T13:49:31.760Z,67.10
2018-04-13T13:51:59.987Z,70.20
2018-04-13T13:54:28.215Z,71.70
2018-04-13T13:56:57.175Z,68.60
2018-04-13T13:59:25.706Z,68.30
2018-04-13T14:01:53.914Z,64.30
2018-04-13T14:04:22.111Z,63.10
2018-04-13T14:06:50.407Z,61.20
2018-04-13T14:09:19.359Z,60.40
2018-04-13T14:14:29.895Z,67.60
2018-04-13T14:16:58.851Z,70.50
2018-04-13T14:19:27.160Z,70.40
2018-04-13T14:21:56.248Z,72.60
2018-04-13T14:24:24.520Z,72.60
2018-04-13T14:26:53.484Z,78.80
2018-04-13T14:29:21.884Z,79.10
2018-04-13T14:31:50.083Z,79.80
2018-04-13T14:34:19.035Z,78.00
2018-04-13T14:36:47.595Z,78.10
2018-04-13T14:39:16.019Z,78.20
2018-04-13T14:41:44.845Z,79.40
2018-04-13T14:44:13.166Z,79.80
2018-04-13T14:46:41.495Z,82.20
2018-04-13T14:49:09.694Z,83.70
2018-04-13T14:51:38.072Z,85.70
2018-04-13T14:54:06.500Z,86.00
2018-04-13T14:56:35.468Z,87.70
2018-04-13T14:59:03.778Z,87.60
2018-04-13T15:01:32.775Z,87.30
2018-04-13T15:04:01.816Z,87.90
2018-04-13T15:06:30.057Z,87.90
2018-04-13T15:08:58.277Z,89.90
2018-04-13T15:11:26.765Z,89.40
2018-04-13T15:13:55.048Z,90.10
2018-04-13T15:16:23.259Z,91.70
2018-04-13T15:18:52.236Z,93.80
2018-04-13T15:21:21.307Z,94.20
2018-04-13T15:23:49.591Z,94.30
2018-04-13T15:26:17.846Z,93.90
2018-04-13T15:28:46.115Z,93.10
2018-04-13T15:31:14.693Z,93.50
2018-04-13T15:33:42.935Z,92.70
2018-04-13T15:36:12.036Z,91.90
2018-04-13T15:38:40.289Z,91.90
2018-04-13T15:41:08.713Z,91.60
2018-04-13T15:43:37.058Z,91.50
2018-04-13T15:46:06.104Z,91.30
2018-04-13T15:48:34.290Z,91.30
2018-04-13T15:51:02.511Z,91.20
2018-04-13T15:53:31.596Z,90.40
2018-04-13T15:55:59.871Z,90.40
2018-04-13T15:58:28.852Z,91.00
2018-04-13T16:00:57.111Z,91.00
2018-04-13T16:03:25.304Z,91.30
2018-04-13T16:05:54.367Z,91.30
2018-04-13T16:08:22.599Z,91.30
2018-04-13T16:10:50.799Z,91.40
2018-04-13T16:13:19.084Z,91.30
2018-04-13T16:15:47.353Z,91.70
2018-04-13T16:18:15.654Z,91.70
2018-04-13T16:20:43.863Z,92.00
2018-04-13T16:23:12.899Z,92.20
2018-04-13T16:25:41.211Z,92.20
2018-04-13T16:28:09.451Z,93.00
2018-04-13T16:30:37.652Z,94.20
2018-04-13T16:33:05.931Z,94.10
2018-04-13T16:35:34.185Z,93.30
2018-04-13T16:38:02.356Z,93.50
2018-04-13T16:40:30.583Z,93.50
2018-04-13T16:42:59.568Z,93.90
2018-04-13T16:45:27.805Z,93.90
2018-04-13T16:47:56.748Z,93.60
2018-04-13T16:50:25.798Z,93.70
2018-04-13T16:52:54.058Z,93.60
2018-04-13T16:55:22.239Z,93.90
2018-04-13T16:57:50.482Z,93.50
2018-04-13T17:00:19.455Z,93.90
2018-04-13T17:02:47.655Z,93.90
2018-04-13T17:05:15.878Z,94.00
2018-04-13T17:07:44.135Z,94.10
2018-04-13T17:10:12.410Z,93.90
2018-04-13T17:12:40.682Z,94.30
2018-04-13T17:15:08.928Z,94.50
2018-04-13T17:17:40.135Z,94.90
2018-04-13T17:20:08.359Z,94.90
2018-04-13T17:22:36.551Z,95.60
2018-04-13T17:25:04.746Z,95.70
2018-04-13T17:27:32.974Z,95.80
2018-04-13T17:30:01.170Z,96.80
2018-04-13T17:32:29.430Z,96.30
2018-04-13T17:34:57.730Z,96.80
2018-04-13T17:37:25.910Z,97.30
2018-04-13T17:39:54.159Z,98.00
2018-04-13T17:42:23.147Z,97.90
2018-04-13T17:44:53.435Z,97.80
2018-04-13T17:47:22.387Z,98.60
2018-04-13T17:49:50.591Z,98.60
2018-04-13T17:52:18.840Z,98.20
2018-04-13T17:54:47.772Z,98.70
2018-04-13T17:57:15.982Z,98.70
2018-04-13T17:59:44.178Z,98.70
2018-04-13T18:02:12.379Z,99.30
2018-04-13T18:04:40.855Z,99.40
2018-04-13T18:07:09.114Z,99.10
2018-04-13T18:09:37.303Z,99.50
2018-04-13T18:12:06.811Z,99.90
2018-04-13T18:14:34.995Z,99.50
2018-04-13T18:17:03.207Z,99.90
2018-04-13T18:19:32.228Z,99.90
2018-04-13T18:22:00.415Z,99.90
2018-04-13T18:24:28.693Z,99.90
2018-04-13T18:26:56.983Z,99.90
2018-04-13T18:29:25.231Z,99.90
2018-04-13T18:31:53.459Z,99.90
2018-04-13T18:34:22.279Z,99.90
2018-04-13T18:36:50.470Z,99.70
2018-04-13T18:39:18.667Z,99.90
2018-04-13T18:41:46.927Z,99.70
2018-04-13T18:44:15.199Z,99.80
2018-04-13T18:46:43.387Z,99.90
2018-04-13T18:49:11.808Z,99.90
2018-04-13T18:51:40.026Z,99.90
2018-04-13T18:54:08.242Z,99.90
2018-04-13T18:56:37.515Z,99.70
2018-04-13T18:59:05.710Z,99.70
2018-04-13T19:01:34.026Z,99.80
2018-04-13T19:04:02.997Z,99.90
2018-04-13T19:06:31.249Z,99.90
2018-04-13T19:08:59.448Z,99.90
2018-04-13T19:11:27.672Z,99.90
2018-04-13T19:13:55.859Z,99.90
2018-04-13T19:16:24.055Z,99.90
2018-04-13T19:18:52.303Z,99.90
2018-04-13T19:21:20.520Z,99.90
2018-04-13T19:23:48.739Z,99.90
2018-04-13T19:26:17.305Z,99.90
2018-04-13T19:28:46.281Z,99.90
2018-04-13T19:31:14.528Z,99.90
2018-04-13T19:33:42.757Z,99.90
2018-04-13T19:36:10.943Z,99.90
2018-04-13T19:38:39.156Z,99.90
2018-04-13T19:41:07.407Z,99.90
2018-04-13T19:43:35.630Z,99.80
2018-04-13T19:46:03.827Z,99.90
2018-04-13T19:48:34.628Z,99.90
2018-04-13T19:51:03.092Z,99.90
2018-04-13T19:53:31.299Z,99.90
2018-04-13T19:56:00.420Z,99.70
2018-04-13T19:58:28.615Z,99.70
2018-04-13T20:00:56.799Z,99.90
2018-04-13T20:03:25.068Z,99.90
2018-04-13T20:05:55.116Z,99.90
2018-04-13T20:08:24.177Z,99.90
2018-04-13T20:13:26.151Z,99.90
2018-04-13T20:15:55.055Z,99.90
2018-04-13T20:18:23.299Z,99.90
2018-04-13T20:20:51.545Z,99.90
2018-04-13T20:23:19.724Z,99.90
2018-04-13T20:25:48.557Z,99.90
2018-04-13T20:28:16.976Z,99.90
2018-04-13T20:30:45.228Z,99.90
2018-04-13T20:33:13.415Z,99.90
2018-04-13T20:35:41.665Z,99.90
2018-04-13T20:38:10.050Z,99.90
2018-04-13T20:40:38.283Z,99.90
2018-04-13T20:43:07.329Z,99.90
2018-04-13T20:45:35.634Z,99.90
2018-04-13T20:48:03.787Z,99.90
2018-04-13T20:50:31.996Z,99.90
2018-04-13T20:53:00.302Z,99.90
2018-04-13T20:55:28.507Z,99.90
2018-04-13T20:57:57.031Z,99.90
2018-04-13T21:00:25.217Z,99.90
2018-04-13T21:02:54.228Z,99.90
2018-04-13T21:05:23.187Z,99.90
2018-04-13T21:07:51.419Z,99.90
2018-04-13T21:10:19.681Z,99.90
2018-04-13T21:12:47.943Z,99.90
2018-04-13T21:15:17.803Z,99.90
2018-04-13T21:17:46.079Z,99.90
2018-04-13T21:20:14.343Z,99.90
2018-04-13T21:22:42.515Z,99.90
2018-04-13T21:25:10.773Z,99.90
2018-04-13T21:27:39.007Z,99.90
2018-04-13T21:30:07.180Z,99.90
2018-04-13T21:32:35.397Z,99.90
2018-04-13T21:35:03.634Z,99.90
2018-04-13T21:37:32.597Z,99.90
2018-04-13T21:40:00.864Z,99.90
2018-04-13T21:42:29.140Z,99.90
2018-04-13T21:44:57.414Z,99.90
2018-04-13T21:47:25.619Z,99.90
2018-04-13T21:49:53.969Z,99.90
2018-04-13T21:52:23.017Z,99.90
2018-04-13T21:54:52.925Z,99.90
2018-04-13T21:57:21.910Z,99.90
2018-04-13T21:59:50.920Z,99.90
2018-04-13T22:02:19.896Z,99.90
2018-04-13T22:04:48.947Z,99.90
2018-04-13T22:07:17.211Z,99.90
2018-04-13T22:09:45.419Z,99.90
2018-04-13T22:12:25.439Z,99.90
2018-04-13T22:14:54.407Z,99.90
2018-04-13T22:17:22.639Z,99.90
2018-04-13T22:22:31.665Z,99.90
2018-04-13T22:24:59.929Z,99.90
2018-04-13T22:27:28.174Z,99.90
2018-04-13T22:29:57.171Z,99.90
2018-04-13T22:32:25.423Z,99.90
2018-04-13T22:34:53.668Z,99.90
2018-04-13T22:37:21.968Z,99.90
2018-04-13T22:39:50.179Z,99.90
2018-04-13T22:42:18.375Z,99.90
2018-04-13T22:44:46.723Z,99.90
2018-04-13T22:47:14.938Z,99.90
2018-04-13T22:49:43.151Z,99.90
2018-04-13T22:52:11.371Z,99.90
2018-04-13T22:54:39.731Z,99.90
2018-04-13T22:57:07.939Z,99.90
2018-04-13T22:59:36.406Z,99.90
2018-04-13T23:02:04.607Z,99.90
2018-04-13T23:04:32.800Z,99.90
2018-04-13T23:07:01.029Z,99.90
2018-04-13T23:09:29.219Z,99.90
2018-04-13T23:11:57.488Z,99.90
2018-04-13T23:14:25.791Z,99.90
2018-04-13T23:16:53.982Z,99.90
2018-04-13T23:19:22.170Z,99.90
2018-04-13T23:21:50.467Z,99.90
2018-04-13T23:24:19.503Z,99.90
2018-04-13T23:26:47.727Z,99.90
2018-04-13T23:29:16.745Z,99.90
2018-04-13T23:31:44.943Z,99.90
2018-04-13T23:34:13.130Z,99.90
2018-04-13T23:36:41.514Z,99.90
2018-04-13T23:39:09.695Z,99.90
2018-04-13T23:41:37.951Z,99.90
2018-04-13T23:44:06.167Z,99.90
2018-04-13T23:46:34.439Z,99.90
2018-04-13T23:49:02.675Z,99.90
2018-04-13T23:51:30.980Z,99.90
2018-04-13T23:53:59.271Z,99.90
2018-04-13T23:56:27.458Z,99.90
2018-04-13T23:58:56.436Z,99.90
